sensor_id;sensor_type;location;lat;lon;timestamp;P1;durP1;ratioP1;P2;durP2;ratioP2
14847;SDS011;7516;43.570;1.448;2022-11-02T00:00:25;5.40;;;2.30;;
14847;SDS011;7516;43.570;1.448;2022-11-02T00:02:53;6.38;;;2.10;;
14847;SDS011;7516;43.570;1.448;2022-11-02T00:05:21;3.50;;;2.22;;
14847;SDS011;7516;43.570;1.448;2022-11-02T00:07:49;6.82;;;2.55;;
14847;SDS011;7516;43.570;1.448;2022-11-02T00:10:17;3.50;;;2.20;;
14847;SDS011;7516;43.570;1.448;2022-11-02T00:12:45;4.03;;;2.22;;
14847;SDS011;7516;43.570;1.448;2022-11-02T00:15:13;4.95;;;1.85;;
14847;SDS011;7516;43.570;1.448;2022-11-02T00:17:43;5.83;;;2.00;;
14847;SDS011;7516;43.570;1.448;2022-11-02T00:20:13;4.90;;;1.93;;
14847;SDS011;7516;43.570;1.448;2022-11-02T00:22:42;4.72;;;1.83;;
14847;SDS011;7516;43.570;1.448;2022-11-02T00:25:11;5.63;;;1.87;;
14847;SDS011;7516;43.570;1.448;2022-11-02T00:27:42;4.43;;;1.83;;
14847;SDS011;7516;43.570;1.448;2022-11-02T00:30:10;6.43;;;1.70;;
14847;SDS011;7516;43.570;1.448;2022-11-02T00:32:37;4.93;;;1.30;;
14847;SDS011;7516;43.570;1.448;2022-11-02T00:35:07;5.23;;;1.50;;
14847;SDS011;7516;43.570;1.448;2022-11-02T00:37:35;6.63;;;2.23;;
14847;SDS011;7516;43.570;1.448;2022-11-02T00:40:03;4.77;;;1.60;;
14847;SDS011;7516;43.570;1.448;2022-11-02T00:42:31;5.87;;;1.57;;
14847;SDS011;7516;43.570;1.448;2022-11-02T00:44:59;5.63;;;1.90;;
14847;SDS011;7516;43.570;1.448;2022-11-02T00:47:26;6.43;;;1.80;;
14847;SDS011;7516;43.570;1.448;2022-11-02T00:49:54;4.85;;;1.70;;
14847;SDS011;7516;43.570;1.448;2022-11-02T00:52:22;5.37;;;2.00;;
14847;SDS011;7516;43.570;1.448;2022-11-02T00:54:50;3.67;;;1.53;;
14847;SDS011;7516;43.570;1.448;2022-11-02T00:57:17;6.00;;;1.80;;
14847;SDS011;7516;43.570;1.448;2022-11-02T00:59:45;5.43;;;2.00;;
14847;SDS011;7516;43.570;1.448;2022-11-02T01:02:12;5.40;;;2.25;;
14847;SDS011;7516;43.570;1.448;2022-11-02T01:04:40;5.73;;;1.90;;
14847;SDS011;7516;43.570;1.448;2022-11-02T01:07:07;3.87;;;1.90;;
14847;SDS011;7516;43.570;1.448;2022-11-02T01:09:36;6.53;;;1.73;;
14847;SDS011;7516;43.570;1.448;2022-11-02T01:12:04;6.80;;;1.93;;
14847;SDS011;7516;43.570;1.448;2022-11-02T01:14:32;9.43;;;2.50;;
14847;SDS011;7516;43.570;1.448;2022-11-02T01:16:59;6.20;;;1.90;;
14847;SDS011;7516;43.570;1.448;2022-11-02T01:19:27;5.33;;;1.97;;
14847;SDS011;7516;43.570;1.448;2022-11-02T01:21:54;8.97;;;1.90;;
14847;SDS011;7516;43.570;1.448;2022-11-02T01:24:22;5.63;;;2.20;;
14847;SDS011;7516;43.570;1.448;2022-11-02T01:26:51;5.93;;;2.00;;
14847;SDS011;7516;43.570;1.448;2022-11-02T01:29:18;5.03;;;2.20;;
14847;SDS011;7516;43.570;1.448;2022-11-02T01:31:46;7.87;;;2.27;;
14847;SDS011;7516;43.570;1.448;2022-11-02T01:34:14;9.20;;;1.93;;
14847;SDS011;7516;43.570;1.448;2022-11-02T01:36:43;7.80;;;2.20;;
14847;SDS011;7516;43.570;1.448;2022-11-02T01:39:12;4.87;;;1.83;;
14847;SDS011;7516;43.570;1.448;2022-11-02T01:41:39;8.53;;;1.90;;
14847;SDS011;7516;43.570;1.448;2022-11-02T01:44:24;5.90;;;1.90;;
14847;SDS011;7516;43.570;1.448;2022-11-02T01:46:54;6.67;;;1.83;;
14847;SDS011;7516;43.570;1.448;2022-11-02T01:49:26;6.73;;;1.93;;
14847;SDS011;7516;43.570;1.448;2022-11-02T01:51:58;7.23;;;1.80;;
14847;SDS011;7516;43.570;1.448;2022-11-02T01:54:33;7.17;;;1.97;;
14847;SDS011;7516;43.570;1.448;2022-11-02T01:57:04;5.47;;;1.73;;
14847;SDS011;7516;43.570;1.448;2022-11-02T01:59:35;7.90;;;2.07;;
14847;SDS011;7516;43.570;1.448;2022-11-02T02:02:15;5.47;;;1.70;;
14847;SDS011;7516;43.570;1.448;2022-11-02T02:04:50;6.53;;;1.60;;
14847;SDS011;7516;43.570;1.448;2022-11-02T02:07:21;4.20;;;1.70;;
14847;SDS011;7516;43.570;1.448;2022-11-02T02:09:50;3.57;;;1.60;;
14847;SDS011;7516;43.570;1.448;2022-11-02T02:12:19;6.60;;;1.47;;
14847;SDS011;7516;43.570;1.448;2022-11-02T02:14:49;8.03;;;1.90;;
14847;SDS011;7516;43.570;1.448;2022-11-02T02:17:27;7.90;;;1.83;;
14847;SDS011;7516;43.570;1.448;2022-11-02T02:20:01;4.93;;;1.60;;
14847;SDS011;7516;43.570;1.448;2022-11-02T02:22:45;8.47;;;1.53;;
14847;SDS011;7516;43.570;1.448;2022-11-02T02:28:41;6.00;;;1.67;;
14847;SDS011;7516;43.570;1.448;2022-11-02T02:31:13;8.87;;;1.57;;
14847;SDS011;7516;43.570;1.448;2022-11-02T02:33:47;6.70;;;1.60;;
14847;SDS011;7516;43.570;1.448;2022-11-02T02:36:21;6.70;;;1.90;;
14847;SDS011;7516;43.570;1.448;2022-11-02T02:38:56;5.93;;;1.60;;
14847;SDS011;7516;43.570;1.448;2022-11-02T02:41:30;7.13;;;1.90;;
14847;SDS011;7516;43.570;1.448;2022-11-02T02:44:06;8.80;;;1.73;;
14847;SDS011;7516;43.570;1.448;2022-11-02T02:46:36;6.60;;;2.33;;
14847;SDS011;7516;43.570;1.448;2022-11-02T02:49:08;7.63;;;1.60;;
14847;SDS011;7516;43.570;1.448;2022-11-02T02:51:40;5.40;;;1.83;;
14847;SDS011;7516;43.570;1.448;2022-11-02T02:54:11;7.47;;;2.03;;
14847;SDS011;7516;43.570;1.448;2022-11-02T02:56:43;6.60;;;1.60;;
14847;SDS011;7516;43.570;1.448;2022-11-02T02:59:15;8.23;;;1.60;;
14847;SDS011;7516;43.570;1.448;2022-11-02T03:01:48;8.30;;;1.90;;
14847;SDS011;7516;43.570;1.448;2022-11-02T03:04:16;5.07;;;1.37;;
14847;SDS011;7516;43.570;1.448;2022-11-02T03:06:44;6.27;;;1.90;;
14847;SDS011;7516;43.570;1.448;2022-11-02T03:09:18;8.67;;;1.83;;
14847;SDS011;7516;43.570;1.448;2022-11-02T03:11:53;5.03;;;1.60;;
14847;SDS011;7516;43.570;1.448;2022-11-02T03:14:36;6.57;;;1.70;;
14847;SDS011;7516;43.570;1.448;2022-11-02T03:17:14;5.17;;;1.60;;
14847;SDS011;7516;43.570;1.448;2022-11-02T03:19:47;5.40;;;1.50;;
14847;SDS011;7516;43.570;1.448;2022-11-02T03:22:20;4.57;;;1.90;;
14847;SDS011;7516;43.570;1.448;2022-11-02T03:24:56;5.37;;;1.33;;
14847;SDS011;7516;43.570;1.448;2022-11-02T03:27:33;5.33;;;1.87;;
14847;SDS011;7516;43.570;1.448;2022-11-02T03:30:08;7.03;;;1.90;;
14847;SDS011;7516;43.570;1.448;2022-11-02T03:32:40;8.33;;;1.50;;
14847;SDS011;7516;43.570;1.448;2022-11-02T03:35:14;5.43;;;1.47;;
14847;SDS011;7516;43.570;1.448;2022-11-02T03:37:50;6.20;;;1.63;;
14847;SDS011;7516;43.570;1.448;2022-11-02T03:40:23;3.97;;;1.60;;
14847;SDS011;7516;43.570;1.448;2022-11-02T03:42:54;5.93;;;1.60;;
14847;SDS011;7516;43.570;1.448;2022-11-02T03:45:25;5.43;;;1.33;;
14847;SDS011;7516;43.570;1.448;2022-11-02T03:47:57;6.23;;;1.70;;
14847;SDS011;7516;43.570;1.448;2022-11-02T03:50:27;7.40;;;1.70;;
14847;SDS011;7516;43.570;1.448;2022-11-02T03:52:59;8.43;;;1.60;;
14847;SDS011;7516;43.570;1.448;2022-11-02T03:55:32;5.33;;;1.80;;
14847;SDS011;7516;43.570;1.448;2022-11-02T03:58:03;7.83;;;1.80;;
14847;SDS011;7516;43.570;1.448;2022-11-02T04:00:32;5.20;;;1.57;;
14847;SDS011;7516;43.570;1.448;2022-11-02T04:03:01;7.70;;;1.87;;
14847;SDS011;7516;43.570;1.448;2022-11-02T04:05:32;5.13;;;1.40;;
14847;SDS011;7516;43.570;1.448;2022-11-02T04:08:01;4.83;;;1.33;;
14847;SDS011;7516;43.570;1.448;2022-11-02T04:10:48;10.60;;;1.90;;
14847;SDS011;7516;43.570;1.448;2022-11-02T04:13:35;6.50;;;1.83;;
14847;SDS011;7516;43.570;1.448;2022-11-02T04:16:22;8.43;;;1.90;;
14847;SDS011;7516;43.570;1.448;2022-11-02T04:18:49;5.87;;;1.40;;
14847;SDS011;7516;43.570;1.448;2022-11-02T04:21:34;6.90;;;1.70;;
14847;SDS011;7516;43.570;1.448;2022-11-02T04:24:02;6.50;;;1.70;;
14847;SDS011;7516;43.570;1.448;2022-11-02T04:26:47;5.33;;;1.70;;
14847;SDS011;7516;43.570;1.448;2022-11-02T04:29:15;5.40;;;1.60;;
14847;SDS011;7516;43.570;1.448;2022-11-02T04:31:44;6.27;;;1.70;;
14847;SDS011;7516;43.570;1.448;2022-11-02T04:34:11;6.77;;;1.73;;
14847;SDS011;7516;43.570;1.448;2022-11-02T04:36:38;7.23;;;1.63;;
14847;SDS011;7516;43.570;1.448;2022-11-02T04:39:05;6.13;;;1.50;;
14847;SDS011;7516;43.570;1.448;2022-11-02T04:41:32;7.93;;;1.60;;
14847;SDS011;7516;43.570;1.448;2022-11-02T04:44:08;4.00;;;1.50;;
14847;SDS011;7516;43.570;1.448;2022-11-02T04:46:37;6.73;;;1.77;;
14847;SDS011;7516;43.570;1.448;2022-11-02T04:49:07;6.73;;;1.73;;
14847;SDS011;7516;43.570;1.448;2022-11-02T04:51:35;4.60;;;1.40;;
14847;SDS011;7516;43.570;1.448;2022-11-02T04:54:04;8.60;;;1.80;;
14847;SDS011;7516;43.570;1.448;2022-11-02T04:56:32;6.53;;;1.63;;
14847;SDS011;7516;43.570;1.448;2022-11-02T04:58:59;6.43;;;1.90;;
14847;SDS011;7516;43.570;1.448;2022-11-02T05:01:27;6.93;;;1.70;;
14847;SDS011;7516;43.570;1.448;2022-11-02T05:03:55;5.13;;;1.50;;
14847;SDS011;7516;43.570;1.448;2022-11-02T05:06:24;4.23;;;1.50;;
14847;SDS011;7516;43.570;1.448;2022-11-02T05:08:52;5.90;;;1.53;;
14847;SDS011;7516;43.570;1.448;2022-11-02T05:11:19;8.27;;;1.73;;
14847;SDS011;7516;43.570;1.448;2022-11-02T05:13:47;7.47;;;1.57;;
14847;SDS011;7516;43.570;1.448;2022-11-02T05:16:15;7.10;;;1.80;;
14847;SDS011;7516;43.570;1.448;2022-11-02T05:18:42;6.73;;;2.00;;
14847;SDS011;7516;43.570;1.448;2022-11-02T05:21:10;9.67;;;2.00;;
14847;SDS011;7516;43.570;1.448;2022-11-02T05:23:39;5.57;;;1.70;;
14847;SDS011;7516;43.570;1.448;2022-11-02T05:26:08;7.73;;;1.93;;
14847;SDS011;7516;43.570;1.448;2022-11-02T05:28:37;7.93;;;2.43;;
14847;SDS011;7516;43.570;1.448;2022-11-02T05:31:05;5.17;;;1.77;;
14847;SDS011;7516;43.570;1.448;2022-11-02T05:33:33;6.77;;;2.30;;
14847;SDS011;7516;43.570;1.448;2022-11-02T05:36:02;8.17;;;2.50;;
14847;SDS011;7516;43.570;1.448;2022-11-02T05:38:30;10.43;;;2.80;;
14847;SDS011;7516;43.570;1.448;2022-11-02T05:40:59;11.73;;;2.40;;
14847;SDS011;7516;43.570;1.448;2022-11-02T05:43:26;6.77;;;2.17;;
14847;SDS011;7516;43.570;1.448;2022-11-02T05:45:54;6.97;;;1.97;;
14847;SDS011;7516;43.570;1.448;2022-11-02T05:48:23;7.33;;;2.03;;
14847;SDS011;7516;43.570;1.448;2022-11-02T05:50:53;8.50;;;2.13;;
14847;SDS011;7516;43.570;1.448;2022-11-02T05:53:21;8.03;;;2.10;;
14847;SDS011;7516;43.570;1.448;2022-11-02T05:55:49;6.10;;;1.80;;
14847;SDS011;7516;43.570;1.448;2022-11-02T05:58:19;8.57;;;1.80;;
14847;SDS011;7516;43.570;1.448;2022-11-02T06:00:46;6.30;;;1.87;;
14847;SDS011;7516;43.570;1.448;2022-11-02T06:03:13;6.57;;;1.77;;
14847;SDS011;7516;43.570;1.448;2022-11-02T06:05:42;4.90;;;1.83;;
14847;SDS011;7516;43.570;1.448;2022-11-02T06:08:09;6.47;;;1.80;;
14847;SDS011;7516;43.570;1.448;2022-11-02T06:10:37;5.43;;;1.60;;
14847;SDS011;7516;43.570;1.448;2022-11-02T06:13:06;6.70;;;1.60;;
14847;SDS011;7516;43.570;1.448;2022-11-02T06:15:36;7.47;;;1.90;;
14847;SDS011;7516;43.570;1.448;2022-11-02T06:18:03;5.27;;;1.83;;
14847;SDS011;7516;43.570;1.448;2022-11-02T06:20:31;6.97;;;1.73;;
14847;SDS011;7516;43.570;1.448;2022-11-02T06:22:59;8.03;;;1.90;;
14847;SDS011;7516;43.570;1.448;2022-11-02T06:25:27;11.03;;;1.83;;
14847;SDS011;7516;43.570;1.448;2022-11-02T06:27:54;6.33;;;2.00;;
14847;SDS011;7516;43.570;1.448;2022-11-02T06:30:22;6.90;;;1.67;;
14847;SDS011;7516;43.570;1.448;2022-11-02T06:32:52;6.57;;;1.90;;
14847;SDS011;7516;43.570;1.448;2022-11-02T06:35:20;6.37;;;1.43;;
14847;SDS011;7516;43.570;1.448;2022-11-02T06:37:48;7.20;;;1.70;;
14847;SDS011;7516;43.570;1.448;2022-11-02T06:40:16;4.23;;;1.47;;
14847;SDS011;7516;43.570;1.448;2022-11-02T06:42:43;8.83;;;2.00;;
14847;SDS011;7516;43.570;1.448;2022-11-02T06:45:11;7.00;;;1.90;;
14847;SDS011;7516;43.570;1.448;2022-11-02T06:47:38;5.90;;;1.73;;
14847;SDS011;7516;43.570;1.448;2022-11-02T06:50:08;7.73;;;1.50;;
14847;SDS011;7516;43.570;1.448;2022-11-02T06:52:39;8.33;;;1.70;;
14847;SDS011;7516;43.570;1.448;2022-11-02T06:55:09;10.23;;;1.53;;
14847;SDS011;7516;43.570;1.448;2022-11-02T06:57:37;7.17;;;1.50;;
14847;SDS011;7516;43.570;1.448;2022-11-02T07:00:06;5.80;;;1.60;;
14847;SDS011;7516;43.570;1.448;2022-11-02T07:02:36;5.17;;;1.63;;
14847;SDS011;7516;43.570;1.448;2022-11-02T07:05:04;5.23;;;1.73;;
14847;SDS011;7516;43.570;1.448;2022-11-02T07:07:33;4.70;;;1.30;;
14847;SDS011;7516;43.570;1.448;2022-11-02T07:10:01;9.83;;;1.50;;
14847;SDS011;7516;43.570;1.448;2022-11-02T07:12:30;6.97;;;1.77;;
14847;SDS011;7516;43.570;1.448;2022-11-02T07:14:58;5.23;;;1.50;;
14847;SDS011;7516;43.570;1.448;2022-11-02T07:17:25;7.13;;;2.10;;
14847;SDS011;7516;43.570;1.448;2022-11-02T07:19:53;5.70;;;1.83;;
14847;SDS011;7516;43.570;1.448;2022-11-02T07:22:22;5.80;;;1.77;;
14847;SDS011;7516;43.570;1.448;2022-11-02T07:24:50;6.07;;;1.70;;
14847;SDS011;7516;43.570;1.448;2022-11-02T07:27:17;10.73;;;1.83;;
14847;SDS011;7516;43.570;1.448;2022-11-02T07:29:45;7.10;;;1.70;;
14847;SDS011;7516;43.570;1.448;2022-11-02T07:32:12;6.17;;;1.53;;
14847;SDS011;7516;43.570;1.448;2022-11-02T07:34:40;5.30;;;1.57;;
14847;SDS011;7516;43.570;1.448;2022-11-02T07:37:07;7.37;;;1.80;;
14847;SDS011;7516;43.570;1.448;2022-11-02T07:39:36;7.63;;;1.70;;
14847;SDS011;7516;43.570;1.448;2022-11-02T07:42:04;8.67;;;1.70;;
14847;SDS011;7516;43.570;1.448;2022-11-02T07:44:31;8.93;;;1.63;;
14847;SDS011;7516;43.570;1.448;2022-11-02T07:46:59;8.97;;;1.80;;
14847;SDS011;7516;43.570;1.448;2022-11-02T07:49:26;9.13;;;2.10;;
14847;SDS011;7516;43.570;1.448;2022-11-02T07:51:54;7.53;;;1.90;;
14847;SDS011;7516;43.570;1.448;2022-11-02T07:54:22;9.90;;;1.87;;
14847;SDS011;7516;43.570;1.448;2022-11-02T07:56:50;6.63;;;1.53;;
14847;SDS011;7516;43.570;1.448;2022-11-02T07:59:18;8.70;;;1.90;;
14847;SDS011;7516;43.570;1.448;2022-11-02T08:01:46;7.47;;;1.63;;
14847;SDS011;7516;43.570;1.448;2022-11-02T08:04:13;5.73;;;1.63;;
14847;SDS011;7516;43.570;1.448;2022-11-02T08:06:41;8.63;;;1.80;;
14847;SDS011;7516;43.570;1.448;2022-11-02T08:09:08;8.33;;;2.17;;
14847;SDS011;7516;43.570;1.448;2022-11-02T08:11:36;7.60;;;1.90;;
14847;SDS011;7516;43.570;1.448;2022-11-02T08:14:05;8.13;;;2.00;;
14847;SDS011;7516;43.570;1.448;2022-11-02T08:16:33;9.47;;;2.60;;
14847;SDS011;7516;43.570;1.448;2022-11-02T08:19:00;9.73;;;2.03;;
14847;SDS011;7516;43.570;1.448;2022-11-02T08:21:28;6.67;;;1.70;;
14847;SDS011;7516;43.570;1.448;2022-11-02T08:23:55;7.50;;;1.70;;
14847;SDS011;7516;43.570;1.448;2022-11-02T08:26:23;6.30;;;1.60;;
14847;SDS011;7516;43.570;1.448;2022-11-02T08:28:50;7.50;;;2.10;;
14847;SDS011;7516;43.570;1.448;2022-11-02T08:31:19;5.93;;;1.90;;
14847;SDS011;7516;43.570;1.448;2022-11-02T08:33:47;8.70;;;2.73;;
14847;SDS011;7516;43.570;1.448;2022-11-02T08:36:15;8.30;;;1.90;;
14847;SDS011;7516;43.570;1.448;2022-11-02T08:38:42;6.30;;;2.10;;
14847;SDS011;7516;43.570;1.448;2022-11-02T08:41:10;7.23;;;1.80;;
14847;SDS011;7516;43.570;1.448;2022-11-02T08:43:38;5.57;;;1.77;;
14847;SDS011;7516;43.570;1.448;2022-11-02T08:46:06;12.00;;;2.20;;
14847;SDS011;7516;43.570;1.448;2022-11-02T08:48:36;9.47;;;1.90;;
14847;SDS011;7516;43.570;1.448;2022-11-02T08:51:03;10.83;;;2.53;;
14847;SDS011;7516;43.570;1.448;2022-11-02T08:53:32;9.80;;;2.43;;
14847;SDS011;7516;43.570;1.448;2022-11-02T08:56:00;8.90;;;1.93;;
14847;SDS011;7516;43.570;1.448;2022-11-02T08:58:27;5.90;;;2.30;;
14847;SDS011;7516;43.570;1.448;2022-11-02T09:00:55;11.37;;;2.10;;
14847;SDS011;7516;43.570;1.448;2022-11-02T09:03:22;7.53;;;1.80;;
14847;SDS011;7516;43.570;1.448;2022-11-02T09:05:55;8.37;;;1.70;;
14847;SDS011;7516;43.570;1.448;2022-11-02T09:08:24;7.80;;;1.80;;
14847;SDS011;7516;43.570;1.448;2022-11-02T09:10:52;10.63;;;1.87;;
14847;SDS011;7516;43.570;1.448;2022-11-02T09:13:23;9.20;;;1.90;;
14847;SDS011;7516;43.570;1.448;2022-11-02T09:15:50;5.23;;;1.50;;
14847;SDS011;7516;43.570;1.448;2022-11-02T09:18:19;6.77;;;1.93;;
14847;SDS011;7516;43.570;1.448;2022-11-02T09:20:47;6.17;;;1.87;;
14847;SDS011;7516;43.570;1.448;2022-11-02T09:23:17;8.07;;;2.00;;
14847;SDS011;7516;43.570;1.448;2022-11-02T09:25:45;7.47;;;1.70;;
14847;SDS011;7516;43.570;1.448;2022-11-02T09:28:13;12.37;;;2.03;;
14847;SDS011;7516;43.570;1.448;2022-11-02T09:30:41;5.70;;;1.60;;
14847;SDS011;7516;43.570;1.448;2022-11-02T09:33:09;5.33;;;1.57;;
14847;SDS011;7516;43.570;1.448;2022-11-02T09:35:38;8.47;;;1.60;;
14847;SDS011;7516;43.570;1.448;2022-11-02T09:38:07;7.63;;;1.70;;
14847;SDS011;7516;43.570;1.448;2022-11-02T09:40:36;7.53;;;2.00;;
14847;SDS011;7516;43.570;1.448;2022-11-02T09:43:08;4.00;;;1.50;;
14847;SDS011;7516;43.570;1.448;2022-11-02T09:45:50;5.53;;;1.30;;
14847;SDS011;7516;43.570;1.448;2022-11-02T09:48:21;5.77;;;1.70;;
14847;SDS011;7516;43.570;1.448;2022-11-02T09:50:54;5.13;;;1.30;;
14847;SDS011;7516;43.570;1.448;2022-11-02T09:53:29;6.10;;;1.67;;
14847;SDS011;7516;43.570;1.448;2022-11-02T09:56:06;8.90;;;1.40;;
14847;SDS011;7516;43.570;1.448;2022-11-02T09:58:36;6.50;;;1.67;;
14847;SDS011;7516;43.570;1.448;2022-11-02T10:01:12;4.27;;;1.43;;
14847;SDS011;7516;43.570;1.448;2022-11-02T10:03:58;3.73;;;1.53;;
14847;SDS011;7516;43.570;1.448;2022-11-02T10:06:55;6.87;;;1.60;;
14847;SDS011;7516;43.570;1.448;2022-11-02T10:09:30;7.20;;;1.50;;
14847;SDS011;7516;43.570;1.448;2022-11-02T10:12:07;6.40;;;1.60;;
14847;SDS011;7516;43.570;1.448;2022-11-02T10:14:39;8.33;;;1.70;;
14847;SDS011;7516;43.570;1.448;2022-11-02T10:17:14;6.20;;;2.00;;
14847;SDS011;7516;43.570;1.448;2022-11-02T10:19:45;4.97;;;1.50;;
14847;SDS011;7516;43.570;1.448;2022-11-02T10:22:15;6.13;;;1.60;;
14847;SDS011;7516;43.570;1.448;2022-11-02T10:24:43;6.70;;;1.90;;
14847;SDS011;7516;43.570;1.448;2022-11-02T10:27:14;4.30;;;1.60;;
14847;SDS011;7516;43.570;1.448;2022-11-02T10:29:48;9.83;;;1.77;;
14847;SDS011;7516;43.570;1.448;2022-11-02T10:32:23;9.73;;;2.00;;
14847;SDS011;7516;43.570;1.448;2022-11-02T10:34:51;7.73;;;1.80;;
14847;SDS011;7516;43.570;1.448;2022-11-02T10:37:22;7.40;;;1.70;;
14847;SDS011;7516;43.570;1.448;2022-11-02T10:40:04;7.70;;;1.90;;
14847;SDS011;7516;43.570;1.448;2022-11-02T10:42:49;9.47;;;1.53;;
14847;SDS011;7516;43.570;1.448;2022-11-02T10:48:30;4.43;;;1.47;;
14847;SDS011;7516;43.570;1.448;2022-11-02T10:51:06;6.17;;;1.40;;
14847;SDS011;7516;43.570;1.448;2022-11-02T10:53:37;5.43;;;1.40;;
14847;SDS011;7516;43.570;1.448;2022-11-02T10:56:09;4.57;;;1.23;;
14847;SDS011;7516;43.570;1.448;2022-11-02T10:58:43;4.67;;;1.20;;
14847;SDS011;7516;43.570;1.448;2022-11-02T11:01:14;3.57;;;1.27;;
14847;SDS011;7516;43.570;1.448;2022-11-02T11:03:51;5.27;;;1.27;;
14847;SDS011;7516;43.570;1.448;2022-11-02T11:06:24;3.90;;;1.20;;
14847;SDS011;7516;43.570;1.448;2022-11-02T11:08:57;5.53;;;1.35;;
14847;SDS011;7516;43.570;1.448;2022-11-02T11:11:27;3.77;;;1.10;;
14847;SDS011;7516;43.570;1.448;2022-11-02T11:13:58;5.65;;;1.90;;
14847;SDS011;7516;43.570;1.448;2022-11-02T11:16:35;4.20;;;1.53;;
14847;SDS011;7516;43.570;1.448;2022-11-02T11:19:06;5.33;;;1.70;;
14847;SDS011;7516;43.570;1.448;2022-11-02T11:21:49;4.77;;;1.13;;
14847;SDS011;7516;43.570;1.448;2022-11-02T11:24:25;6.23;;;1.37;;
14847;SDS011;7516;43.570;1.448;2022-11-02T11:27:04;5.43;;;1.27;;
14847;SDS011;7516;43.570;1.448;2022-11-02T11:29:46;4.73;;;1.27;;
14847;SDS011;7516;43.570;1.448;2022-11-02T11:32:16;4.83;;;1.40;;
14847;SDS011;7516;43.570;1.448;2022-11-02T11:34:45;4.45;;;1.40;;
14847;SDS011;7516;43.570;1.448;2022-11-02T11:37:20;3.70;;;1.30;;
14847;SDS011;7516;43.570;1.448;2022-11-02T11:39:50;6.80;;;1.70;;
14847;SDS011;7516;43.570;1.448;2022-11-02T11:42:21;3.63;;;1.40;;
14847;SDS011;7516;43.570;1.448;2022-11-02T11:44:55;3.63;;;1.10;;
14847;SDS011;7516;43.570;1.448;2022-11-02T11:47:26;4.10;;;1.80;;
14847;SDS011;7516;43.570;1.448;2022-11-02T11:49:56;2.63;;;1.20;;
14847;SDS011;7516;43.570;1.448;2022-11-02T11:52:28;3.63;;;1.17;;
14847;SDS011;7516;43.570;1.448;2022-11-02T11:54:57;5.93;;;1.60;;
14847;SDS011;7516;43.570;1.448;2022-11-02T11:57:27;5.43;;;1.20;;
14847;SDS011;7516;43.570;1.448;2022-11-02T11:59:57;2.37;;;1.10;;
14847;SDS011;7516;43.570;1.448;2022-11-02T12:02:29;7.33;;;1.97;;
14847;SDS011;7516;43.570;1.448;2022-11-02T12:05:00;3.53;;;1.33;;
14847;SDS011;7516;43.570;1.448;2022-11-02T12:10:37;3.72;;;1.27;;
14847;SDS011;7516;43.570;1.448;2022-11-02T12:13:27;2.22;;;0.98;;
14847;SDS011;7516;43.570;1.448;2022-11-02T12:16:14;3.53;;;1.30;;
14847;SDS011;7516;43.570;1.448;2022-11-02T12:18:50;4.23;;;1.30;;
14847;SDS011;7516;43.570;1.448;2022-11-02T12:21:33;4.37;;;1.43;;
14847;SDS011;7516;43.570;1.448;2022-11-02T12:24:12;5.57;;;1.10;;
14847;SDS011;7516;43.570;1.448;2022-11-02T12:27:15;3.67;;;1.20;;
14847;SDS011;7516;43.570;1.448;2022-11-02T12:30:01;3.90;;;1.30;;
14847;SDS011;7516;43.570;1.448;2022-11-02T12:32:53;4.40;;;1.37;;
14847;SDS011;7516;43.570;1.448;2022-11-02T12:35:36;3.30;;;1.13;;
14847;SDS011;7516;43.570;1.448;2022-11-02T12:38:30;3.17;;;1.27;;
14847;SDS011;7516;43.570;1.448;2022-11-02T12:41:09;4.40;;;1.30;;
14847;SDS011;7516;43.570;1.448;2022-11-02T12:43:42;4.75;;;1.75;;
14847;SDS011;7516;43.570;1.448;2022-11-02T12:46:15;5.00;;;1.55;;
14847;SDS011;7516;43.570;1.448;2022-11-02T12:48:56;6.57;;;2.03;;
14847;SDS011;7516;43.570;1.448;2022-11-02T12:51:36;3.30;;;1.50;;
14847;SDS011;7516;43.570;1.448;2022-11-02T12:54:11;2.85;;;1.60;;
14847;SDS011;7516;43.570;1.448;2022-11-02T12:56:44;3.10;;;1.33;;
14847;SDS011;7516;43.570;1.448;2022-11-02T12:59:15;4.63;;;1.50;;
14847;SDS011;7516;43.570;1.448;2022-11-02T13:01:48;3.03;;;1.33;;
14847;SDS011;7516;43.570;1.448;2022-11-02T13:04:22;3.80;;;1.57;;
14847;SDS011;7516;43.570;1.448;2022-11-02T13:06:54;7.68;;;1.80;;
14847;SDS011;7516;43.570;1.448;2022-11-02T13:09:27;4.35;;;1.52;;
14847;SDS011;7516;43.570;1.448;2022-11-02T13:11:59;2.93;;;1.43;;
14847;SDS011;7516;43.570;1.448;2022-11-02T13:14:35;3.23;;;1.07;;
14847;SDS011;7516;43.570;1.448;2022-11-02T13:17:08;2.72;;;1.02;;
14847;SDS011;7516;43.570;1.448;2022-11-02T13:19:42;3.08;;;1.02;;
14847;SDS011;7516;43.570;1.448;2022-11-02T13:22:14;2.87;;;1.00;;
14847;SDS011;7516;43.570;1.448;2022-11-02T13:24:44;3.40;;;1.10;;
14847;SDS011;7516;43.570;1.448;2022-11-02T13:27:24;6.70;;;1.00;;
14847;SDS011;7516;43.570;1.448;2022-11-02T13:29:55;2.87;;;0.77;;
14847;SDS011;7516;43.570;1.448;2022-11-02T13:32:27;2.05;;;0.65;;
14847;SDS011;7516;43.570;1.448;2022-11-02T13:35:02;4.47;;;0.95;;
14847;SDS011;7516;43.570;1.448;2022-11-02T13:37:32;2.27;;;0.93;;
14847;SDS011;7516;43.570;1.448;2022-11-02T13:40:06;0.83;;;0.60;;
14847;SDS011;7516;43.570;1.448;2022-11-02T13:45:36;2.03;;;0.80;;
14847;SDS011;7516;43.570;1.448;2022-11-02T13:48:28;1.67;;;0.50;;
14847;SDS011;7516;43.570;1.448;2022-11-02T13:51:18;1.85;;;1.15;;
14847;SDS011;7516;43.570;1.448;2022-11-02T13:53:53;3.17;;;0.70;;
14847;SDS011;7516;43.570;1.448;2022-11-02T13:56:25;3.53;;;0.75;;
14847;SDS011;7516;43.570;1.448;2022-11-02T13:58:59;1.65;;;0.73;;
14847;SDS011;7516;43.570;1.448;2022-11-02T14:01:29;1.90;;;0.70;;
14847;SDS011;7516;43.570;1.448;2022-11-02T14:04:01;1.70;;;0.70;;
14847;SDS011;7516;43.570;1.448;2022-11-02T14:06:42;2.63;;;1.13;;
14847;SDS011;7516;43.570;1.448;2022-11-02T14:09:27;1.98;;;0.82;;
14847;SDS011;7516;43.570;1.448;2022-11-02T14:12:17;2.13;;;0.70;;
14847;SDS011;7516;43.570;1.448;2022-11-02T14:18:26;2.28;;;1.00;;
14847;SDS011;7516;43.570;1.448;2022-11-02T14:20:55;4.05;;;1.00;;
14847;SDS011;7516;43.570;1.448;2022-11-02T14:23:37;1.52;;;0.90;;
14847;SDS011;7516;43.570;1.448;2022-11-02T14:28:59;2.55;;;0.90;;
14847;SDS011;7516;43.570;1.448;2022-11-02T14:31:52;4.80;;;1.00;;
14847;SDS011;7516;43.570;1.448;2022-11-02T14:34:36;3.63;;;0.98;;
14847;SDS011;7516;43.570;1.448;2022-11-02T14:37:32;3.22;;;0.93;;
14847;SDS011;7516;43.570;1.448;2022-11-02T14:40:11;3.25;;;1.15;;
14847;SDS011;7516;43.570;1.448;2022-11-02T14:42:57;1.95;;;1.05;;
14847;SDS011;7516;43.570;1.448;2022-11-02T14:45:45;2.58;;;0.82;;
14847;SDS011;7516;43.570;1.448;2022-11-02T14:48:27;3.80;;;0.80;;
14847;SDS011;7516;43.570;1.448;2022-11-02T14:50:57;1.77;;;1.00;;
14847;SDS011;7516;43.570;1.448;2022-11-02T14:53:30;2.00;;;0.90;;
14847;SDS011;7516;43.570;1.448;2022-11-02T14:56:02;3.42;;;1.30;;
14847;SDS011;7516;43.570;1.448;2022-11-02T14:58:31;2.20;;;0.80;;
14847;SDS011;7516;43.570;1.448;2022-11-02T15:01:02;2.50;;;0.90;;
14847;SDS011;7516;43.570;1.448;2022-11-02T15:03:32;1.80;;;0.93;;
14847;SDS011;7516;43.570;1.448;2022-11-02T15:06:04;2.75;;;0.95;;
14847;SDS011;7516;43.570;1.448;2022-11-02T15:08:47;1.90;;;1.10;;
14847;SDS011;7516;43.570;1.448;2022-11-02T15:14:30;1.10;;;0.80;;
14847;SDS011;7516;43.570;1.448;2022-11-02T15:20:26;1.50;;;1.02;;
14847;SDS011;7516;43.570;1.448;2022-11-02T15:23:03;4.18;;;0.90;;
14847;SDS011;7516;43.570;1.448;2022-11-02T15:25:39;3.90;;;1.20;;
14847;SDS011;7516;43.570;1.448;2022-11-02T15:28:15;2.30;;;1.05;;
14847;SDS011;7516;43.570;1.448;2022-11-02T15:30:47;4.03;;;1.00;;
14847;SDS011;7516;43.570;1.448;2022-11-02T15:33:18;3.35;;;1.20;;
14847;SDS011;7516;43.570;1.448;2022-11-02T15:36:01;3.25;;;1.60;;
14847;SDS011;7516;43.570;1.448;2022-11-02T15:38:30;2.13;;;1.02;;
14847;SDS011;7516;43.570;1.448;2022-11-02T15:41:03;4.38;;;1.20;;
14847;SDS011;7516;43.570;1.448;2022-11-02T15:43:45;6.28;;;1.30;;
14847;SDS011;7516;43.570;1.448;2022-11-02T15:46:37;2.65;;;1.20;;
14847;SDS011;7516;43.570;1.448;2022-11-02T15:49:17;3.45;;;1.80;;
14847;SDS011;7516;43.570;1.448;2022-11-02T15:52:00;4.43;;;1.23;;
14847;SDS011;7516;43.570;1.448;2022-11-02T15:54:43;2.25;;;1.10;;